sensor_id;sensor_type;location;lat;lon;timestamp;P1;durP1;ratioP1;P2;durP2;ratioP2
74894;SDS011;63447;49.446;8.666;2023-05-07T00:02:02;6.17;;;2.20;;
74894;SDS011;63447;49.446;8.666;2023-05-07T00:04:32;5.00;;;2.22;;
74894;SDS011;63447;49.446;8.666;2023-05-07T00:07:01;5.68;;;2.42;;
74894;SDS011;63447;49.446;8.666;2023-05-07T00:09:27;4.35;;;2.17;;
74894;SDS011;63447;49.446;8.666;2023-05-07T00:11:52;4.93;;;2.40;;
74894;SDS011;63447;49.446;8.666;2023-05-07T00:14:18;6.23;;;2.20;;
74894;SDS011;63447;49.446;8.666;2023-05-07T00:16:46;5.13;;;2.20;;
74894;SDS011;63447;49.446;8.666;2023-05-07T00:19:12;5.35;;;2.00;;
74894;SDS011;63447;49.446;8.666;2023-05-07T00:21:39;5.45;;;2.22;;
74894;SDS011;63447;49.446;8.666;2023-05-07T00:24:07;4.65;;;2.60;;
74894;SDS011;63447;49.446;8.666;2023-05-07T00:26:32;4.00;;;2.10;;
74894;SDS011;63447;49.446;8.666;2023-05-07T00:28:58;5.13;;;2.00;;
74894;SDS011;63447;49.446;8.666;2023-05-07T00:31:23;4.73;;;2.03;;
74894;SDS011;63447;49.446;8.666;2023-05-07T00:33:48;4.47;;;2.20;;
74894;SDS011;63447;49.446;8.666;2023-05-07T00:36:14;4.05;;;2.00;;
74894;SDS011;63447;49.446;8.666;2023-05-07T00:38:39;5.10;;;2.08;;
74894;SDS011;63447;49.446;8.666;2023-05-07T00:41:04;3.97;;;1.90;;
74894;SDS011;63447;49.446;8.666;2023-05-07T00:43:32;4.75;;;2.60;;
74894;SDS011;63447;49.446;8.666;2023-05-07T00:46:00;3.90;;;2.00;;
74894;SDS011;63447;49.446;8.666;2023-05-07T00:48:26;5.30;;;2.17;;
74894;SDS011;63447;49.446;8.666;2023-05-07T00:50:51;4.00;;;1.70;;
74894;SDS011;63447;49.446;8.666;2023-05-07T00:53:17;4.75;;;2.10;;
74894;SDS011;63447;49.446;8.666;2023-05-07T00:55:42;4.93;;;2.15;;
74894;SDS011;63447;49.446;8.666;2023-05-07T00:58:10;4.47;;;1.98;;
74894;SDS011;63447;49.446;8.666;2023-05-07T01:00:38;4.45;;;1.65;;
74894;SDS011;63447;49.446;8.666;2023-05-07T01:03:03;6.30;;;1.90;;
74894;SDS011;63447;49.446;8.666;2023-05-07T01:05:30;4.10;;;1.85;;
74894;SDS011;63447;49.446;8.666;2023-05-07T01:07:55;3.78;;;1.90;;
74894;SDS011;63447;49.446;8.666;2023-05-07T01:10:25;4.85;;;1.85;;
74894;SDS011;63447;49.446;8.666;2023-05-07T01:12:51;4.90;;;1.92;;
74894;SDS011;63447;49.446;8.666;2023-05-07T01:15:17;4.55;;;2.00;;
74894;SDS011;63447;49.446;8.666;2023-05-07T01:17:43;4.15;;;1.70;;
74894;SDS011;63447;49.446;8.666;2023-05-07T01:20:11;4.07;;;1.92;;
74894;SDS011;63447;49.446;8.666;2023-05-07T01:22:39;4.53;;;2.10;;
74894;SDS011;63447;49.446;8.666;2023-05-07T01:25:05;4.47;;;1.80;;
74894;SDS011;63447;49.446;8.666;2023-05-07T01:27:35;4.80;;;1.92;;
74894;SDS011;63447;49.446;8.666;2023-05-07T01:30:02;4.78;;;2.00;;
74894;SDS011;63447;49.446;8.666;2023-05-07T01:32:33;4.75;;;1.80;;
74894;SDS011;63447;49.446;8.666;2023-05-07T01:35:03;5.15;;;1.90;;
74894;SDS011;63447;49.446;8.666;2023-05-07T01:37:32;5.20;;;2.10;;
74894;SDS011;63447;49.446;8.666;2023-05-07T01:40:01;4.82;;;2.00;;
74894;SDS011;63447;49.446;8.666;2023-05-07T01:42:28;4.82;;;2.03;;
74894;SDS011;63447;49.446;8.666;2023-05-07T01:44:54;4.43;;;2.10;;
74894;SDS011;63447;49.446;8.666;2023-05-07T01:47:20;4.25;;;1.88;;
74894;SDS011;63447;49.446;8.666;2023-05-07T01:49:46;5.95;;;2.55;;
74894;SDS011;63447;49.446;8.666;2023-05-07T01:52:14;5.35;;;1.70;;
74894;SDS011;63447;49.446;8.666;2023-05-07T01:54:39;4.47;;;1.60;;
74894;SDS011;63447;49.446;8.666;2023-05-07T01:57:04;4.83;;;1.50;;
74894;SDS011;63447;49.446;8.666;2023-05-07T01:59:30;5.05;;;1.85;;
74894;SDS011;63447;49.446;8.666;2023-05-07T02:01:55;7.03;;;2.20;;
74894;SDS011;63447;49.446;8.666;2023-05-07T02:04:21;6.33;;;1.80;;
74894;SDS011;63447;49.446;8.666;2023-05-07T02:06:46;3.83;;;1.70;;
74894;SDS011;63447;49.446;8.666;2023-05-07T02:09:11;4.55;;;1.50;;
74894;SDS011;63447;49.446;8.666;2023-05-07T02:11:39;5.05;;;1.90;;
74894;SDS011;63447;49.446;8.666;2023-05-07T02:14:07;4.17;;;1.60;;
74894;SDS011;63447;49.446;8.666;2023-05-07T02:16:32;3.50;;;1.50;;
74894;SDS011;63447;49.446;8.666;2023-05-07T02:18:57;4.83;;;1.87;;
74894;SDS011;63447;49.446;8.666;2023-05-07T02:21:25;3.95;;;1.48;;
74894;SDS011;63447;49.446;8.666;2023-05-07T02:23:50;6.27;;;1.87;;
74894;SDS011;63447;49.446;8.666;2023-05-07T02:26:15;4.33;;;1.60;;
74894;SDS011;63447;49.446;8.666;2023-05-07T02:28:41;4.22;;;1.65;;
74894;SDS011;63447;49.446;8.666;2023-05-07T02:31:06;4.23;;;1.90;;
74894;SDS011;63447;49.446;8.666;2023-05-07T02:33:31;4.43;;;1.80;;
74894;SDS011;63447;49.446;8.666;2023-05-07T02:35:59;5.93;;;2.00;;
74894;SDS011;63447;49.446;8.666;2023-05-07T02:38:30;4.38;;;1.85;;
74894;SDS011;63447;49.446;8.666;2023-05-07T02:40:58;5.83;;;1.77;;
74894;SDS011;63447;49.446;8.666;2023-05-07T02:43:23;4.82;;;1.80;;
74894;SDS011;63447;49.446;8.666;2023-05-07T02:45:48;3.93;;;2.00;;
74894;SDS011;63447;49.446;8.666;2023-05-07T02:48:14;4.55;;;2.25;;
74894;SDS011;63447;49.446;8.666;2023-05-07T02:50:39;5.88;;;2.17;;
74894;SDS011;63447;49.446;8.666;2023-05-07T02:53:05;4.97;;;2.40;;
74894;SDS011;63447;49.446;8.666;2023-05-07T02:55:34;5.90;;;2.40;;
74894;SDS011;63447;49.446;8.666;2023-05-07T02:58:00;5.07;;;2.60;;
74894;SDS011;63447;49.446;8.666;2023-05-07T03:00:27;5.15;;;2.20;;
74894;SDS011;63447;49.446;8.666;2023-05-07T03:02:53;4.22;;;2.22;;
74894;SDS011;63447;49.446;8.666;2023-05-07T03:05:18;6.00;;;2.57;;
74894;SDS011;63447;49.446;8.666;2023-05-07T03:07:43;4.45;;;1.90;;
74894;SDS011;63447;49.446;8.666;2023-05-07T03:10:14;5.20;;;2.30;;
74894;SDS011;63447;49.446;8.666;2023-05-07T03:12:39;5.00;;;2.70;;
74894;SDS011;63447;49.446;8.666;2023-05-07T03:15:07;4.60;;;2.22;;
74894;SDS011;63447;49.446;8.666;2023-05-07T03:17:33;4.47;;;2.35;;
74894;SDS011;63447;49.446;8.666;2023-05-07T03:19:58;4.40;;;2.20;;
74894;SDS011;63447;49.446;8.666;2023-05-07T03:22:24;4.38;;;2.35;;
74894;SDS011;63447;49.446;8.666;2023-05-07T03:24:49;5.38;;;2.53;;
74894;SDS011;63447;49.446;8.666;2023-05-07T03:27:17;5.43;;;2.35;;
74894;SDS011;63447;49.446;8.666;2023-05-07T03:29:43;5.95;;;2.50;;
74894;SDS011;63447;49.446;8.666;2023-05-07T03:32:08;4.60;;;2.30;;
74894;SDS011;63447;49.446;8.666;2023-05-07T03:34:33;5.78;;;2.50;;
74894;SDS011;63447;49.446;8.666;2023-05-07T03:37:01;7.15;;;2.58;;
74894;SDS011;63447;49.446;8.666;2023-05-07T03:39:29;5.60;;;3.00;;
74894;SDS011;63447;49.446;8.666;2023-05-07T03:41:55;5.05;;;2.47;;
74894;SDS011;63447;49.446;8.666;2023-05-07T03:44:20;5.30;;;2.42;;
74894;SDS011;63447;49.446;8.666;2023-05-07T03:46:48;5.53;;;2.72;;
74894;SDS011;63447;49.446;8.666;2023-05-07T03:49:16;6.47;;;2.50;;
74894;SDS011;63447;49.446;8.666;2023-05-07T03:51:45;5.55;;;2.60;;
74894;SDS011;63447;49.446;8.666;2023-05-07T03:54:10;6.20;;;2.75;;
74894;SDS011;63447;49.446;8.666;2023-05-07T03:56:35;5.57;;;2.87;;
74894;SDS011;63447;49.446;8.666;2023-05-07T03:59:01;7.30;;;2.80;;
74894;SDS011;63447;49.446;8.666;2023-05-07T04:01:27;4.65;;;2.65;;
74894;SDS011;63447;49.446;8.666;2023-05-07T04:03:55;8.25;;;3.60;;
74894;SDS011;63447;49.446;8.666;2023-05-07T04:06:22;4.93;;;2.63;;
74894;SDS011;63447;49.446;8.666;2023-05-07T04:08:52;5.22;;;2.65;;
74894;SDS011;63447;49.446;8.666;2023-05-07T04:11:20;6.18;;;2.75;;
74894;SDS011;63447;49.446;8.666;2023-05-07T04:13:45;5.50;;;2.53;;
74894;SDS011;63447;49.446;8.666;2023-05-07T04:16:13;6.30;;;3.05;;
74894;SDS011;63447;49.446;8.666;2023-05-07T04:18:39;5.30;;;2.80;;
74894;SDS011;63447;49.446;8.666;2023-05-07T04:21:04;5.68;;;2.90;;
74894;SDS011;63447;49.446;8.666;2023-05-07T04:23:30;4.78;;;2.90;;
74894;SDS011;63447;49.446;8.666;2023-05-07T04:25:56;5.65;;;2.92;;
74894;SDS011;63447;49.446;8.666;2023-05-07T04:28:22;7.90;;;3.53;;
74894;SDS011;63447;49.446;8.666;2023-05-07T04:30:47;5.75;;;2.92;;
74894;SDS011;63447;49.446;8.666;2023-05-07T04:33:13;5.90;;;3.00;;
74894;SDS011;63447;49.446;8.666;2023-05-07T04:35:41;5.93;;;2.97;;
74894;SDS011;63447;49.446;8.666;2023-05-07T04:38:07;5.50;;;3.00;;
74894;SDS011;63447;49.446;8.666;2023-05-07T04:40:32;6.30;;;3.30;;
74894;SDS011;63447;49.446;8.666;2023-05-07T04:43:00;6.70;;;3.30;;
74894;SDS011;63447;49.446;8.666;2023-05-07T04:45:26;6.30;;;3.60;;
74894;SDS011;63447;49.446;8.666;2023-05-07T04:47:51;5.60;;;3.58;;
74894;SDS011;63447;49.446;8.666;2023-05-07T04:50:19;6.28;;;3.60;;
74894;SDS011;63447;49.446;8.666;2023-05-07T04:52:44;6.35;;;3.67;;
74894;SDS011;63447;49.446;8.666;2023-05-07T04:55:12;6.72;;;3.95;;
74894;SDS011;63447;49.446;8.666;2023-05-07T04:57:37;6.97;;;3.57;;
74894;SDS011;63447;49.446;8.666;2023-05-07T05:00:06;6.00;;;3.50;;
74894;SDS011;63447;49.446;8.666;2023-05-07T05:02:33;5.93;;;3.60;;
74894;SDS011;63447;49.446;8.666;2023-05-07T05:05:02;6.18;;;3.70;;
74894;SDS011;63447;49.446;8.666;2023-05-07T05:07:28;6.40;;;3.38;;
74894;SDS011;63447;49.446;8.666;2023-05-07T05:09:53;6.30;;;3.55;;
74894;SDS011;63447;49.446;8.666;2023-05-07T05:12:21;6.13;;;3.65;;
74894;SDS011;63447;49.446;8.666;2023-05-07T05:14:47;6.38;;;3.50;;
74894;SDS011;63447;49.446;8.666;2023-05-07T05:17:14;7.87;;;3.83;;
74894;SDS011;63447;49.446;8.666;2023-05-07T05:19:45;6.38;;;3.90;;
74894;SDS011;63447;49.446;8.666;2023-05-07T05:22:10;6.60;;;3.90;;
74894;SDS011;63447;49.446;8.666;2023-05-07T05:24:37;5.95;;;3.50;;
74894;SDS011;63447;49.446;8.666;2023-05-07T05:27:03;9.57;;;3.83;;
74894;SDS011;63447;49.446;8.666;2023-05-07T05:29:29;5.78;;;3.45;;
74894;SDS011;63447;49.446;8.666;2023-05-07T05:31:57;6.15;;;4.35;;
74894;SDS011;63447;49.446;8.666;2023-05-07T05:34:24;7.32;;;3.90;;
74894;SDS011;63447;49.446;8.666;2023-05-07T05:36:49;7.83;;;3.13;;
74894;SDS011;63447;49.446;8.666;2023-05-07T05:39:15;6.22;;;3.45;;
74894;SDS011;63447;49.446;8.666;2023-05-07T05:41:43;6.75;;;3.80;;
74894;SDS011;63447;49.446;8.666;2023-05-07T05:44:09;6.55;;;3.22;;
74894;SDS011;63447;49.446;8.666;2023-05-07T05:46:34;6.80;;;3.58;;
74894;SDS011;63447;49.446;8.666;2023-05-07T05:49:00;6.43;;;3.55;;
74894;SDS011;63447;49.446;8.666;2023-05-07T05:51:27;6.20;;;3.35;;
74894;SDS011;63447;49.446;8.666;2023-05-07T05:53:55;5.45;;;3.15;;
74894;SDS011;63447;49.446;8.666;2023-05-07T05:56:20;6.20;;;3.60;;
74894;SDS011;63447;49.446;8.666;2023-05-07T05:58:46;5.38;;;3.30;;
74894;SDS011;63447;49.446;8.666;2023-05-07T06:01:11;6.72;;;3.40;;
74894;SDS011;63447;49.446;8.666;2023-05-07T06:03:37;7.53;;;3.50;;
74894;SDS011;63447;49.446;8.666;2023-05-07T06:06:04;7.03;;;3.83;;
74894;SDS011;63447;49.446;8.666;2023-05-07T06:08:30;5.80;;;3.60;;
74894;SDS011;63447;49.446;8.666;2023-05-07T06:10:55;6.78;;;4.32;;
74894;SDS011;63447;49.446;8.666;2023-05-07T06:13:21;6.38;;;4.00;;
74894;SDS011;63447;49.446;8.666;2023-05-07T06:15:47;5.60;;;3.15;;
74894;SDS011;63447;49.446;8.666;2023-05-07T06:18:13;6.03;;;3.80;;
74894;SDS011;63447;49.446;8.666;2023-05-07T06:20:41;7.32;;;4.90;;
74894;SDS011;63447;49.446;8.666;2023-05-07T06:23:09;6.57;;;4.10;;
74894;SDS011;63447;49.446;8.666;2023-05-07T06:25:39;5.65;;;3.47;;
74894;SDS011;63447;49.446;8.666;2023-05-07T06:28:08;7.03;;;3.60;;
74894;SDS011;63447;49.446;8.666;2023-05-07T06:30:36;6.40;;;3.53;;
74894;SDS011;63447;49.446;8.666;2023-05-07T06:33:03;6.93;;;4.13;;
74894;SDS011;63447;49.446;8.666;2023-05-07T06:35:29;8.52;;;4.70;;
74894;SDS011;63447;49.446;8.666;2023-05-07T06:37:54;5.88;;;3.92;;
74894;SDS011;63447;49.446;8.666;2023-05-07T06:40:19;5.80;;;3.43;;
74894;SDS011;63447;49.446;8.666;2023-05-07T06:42:45;5.20;;;3.30;;
74894;SDS011;63447;49.446;8.666;2023-05-07T06:45:10;6.83;;;3.57;;
74894;SDS011;63447;49.446;8.666;2023-05-07T06:47:36;5.70;;;3.47;;
74894;SDS011;63447;49.446;8.666;2023-05-07T06:50:12;6.88;;;3.88;;
74894;SDS011;63447;49.446;8.666;2023-05-07T06:52:41;6.57;;;3.40;;
74894;SDS011;63447;49.446;8.666;2023-05-07T06:55:07;8.63;;;5.05;;
74894;SDS011;63447;49.446;8.666;2023-05-07T06:57:33;7.28;;;4.15;;
74894;SDS011;63447;49.446;8.666;2023-05-07T06:59:58;8.70;;;4.03;;
74894;SDS011;63447;49.446;8.666;2023-05-07T07:02:26;7.85;;;3.70;;
74894;SDS011;63447;49.446;8.666;2023-05-07T07:04:56;7.38;;;4.22;;
74894;SDS011;63447;49.446;8.666;2023-05-07T07:07:21;7.03;;;3.70;;
74894;SDS011;63447;49.446;8.666;2023-05-07T07:09:49;9.10;;;4.20;;
74894;SDS011;63447;49.446;8.666;2023-05-07T07:12:17;7.75;;;3.90;;
74894;SDS011;63447;49.446;8.666;2023-05-07T07:14:42;8.43;;;3.60;;
74894;SDS011;63447;49.446;8.666;2023-05-07T07:17:07;5.28;;;3.08;;
74894;SDS011;63447;49.446;8.666;2023-05-07T07:19:33;6.13;;;3.07;;
74894;SDS011;63447;49.446;8.666;2023-05-07T07:21:58;7.27;;;3.00;;
74894;SDS011;63447;49.446;8.666;2023-05-07T07:24:23;5.68;;;3.35;;
74894;SDS011;63447;49.446;8.666;2023-05-07T07:26:49;7.30;;;3.35;;
74894;SDS011;63447;49.446;8.666;2023-05-07T07:31:48;6.35;;;3.30;;
74894;SDS011;63447;49.446;8.666;2023-05-07T07:34:16;5.40;;;3.28;;
74894;SDS011;63447;49.446;8.666;2023-05-07T07:36:41;6.00;;;3.35;;
74894;SDS011;63447;49.446;8.666;2023-05-07T07:39:07;6.93;;;3.33;;
74894;SDS011;63447;49.446;8.666;2023-05-07T07:41:32;7.07;;;3.30;;
74894;SDS011;63447;49.446;8.666;2023-05-07T07:43:57;9.63;;;4.20;;
74894;SDS011;63447;49.446;8.666;2023-05-07T07:46:23;7.07;;;3.45;;
74894;SDS011;63447;49.446;8.666;2023-05-07T07:48:51;8.30;;;3.40;;
74894;SDS011;63447;49.446;8.666;2023-05-07T07:51:26;5.43;;;2.97;;
74894;SDS011;63447;49.446;8.666;2023-05-07T07:53:51;5.37;;;3.10;;
74894;SDS011;63447;49.446;8.666;2023-05-07T07:56:17;7.13;;;3.10;;
74894;SDS011;63447;49.446;8.666;2023-05-07T07:58:47;16.02;;;9.90;;
74894;SDS011;63447;49.446;8.666;2023-05-07T08:01:12;7.60;;;4.65;;
74894;SDS011;63447;49.446;8.666;2023-05-07T08:03:38;6.03;;;3.10;;
74894;SDS011;63447;49.446;8.666;2023-05-07T08:06:05;5.82;;;2.78;;
74894;SDS011;63447;49.446;8.666;2023-05-07T08:08:31;6.28;;;2.78;;
74894;SDS011;63447;49.446;8.666;2023-05-07T08:10:56;6.17;;;2.90;;
74894;SDS011;63447;49.446;8.666;2023-05-07T08:13:21;4.88;;;2.53;;
74894;SDS011;63447;49.446;8.666;2023-05-07T08:15:49;5.40;;;2.85;;
74894;SDS011;63447;49.446;8.666;2023-05-07T08:18:15;5.70;;;2.40;;
74894;SDS011;63447;49.446;8.666;2023-05-07T08:20:42;5.65;;;2.42;;
74894;SDS011;63447;49.446;8.666;2023-05-07T08:23:08;4.50;;;2.38;;
74894;SDS011;63447;49.446;8.666;2023-05-07T08:25:36;4.43;;;2.35;;
74894;SDS011;63447;49.446;8.666;2023-05-07T08:28:03;5.18;;;2.67;;
74894;SDS011;63447;49.446;8.666;2023-05-07T08:30:28;7.18;;;2.90;;
74894;SDS011;63447;49.446;8.666;2023-05-07T08:32:56;8.45;;;2.65;;
74894;SDS011;63447;49.446;8.666;2023-05-07T08:35:21;5.03;;;2.43;;
74894;SDS011;63447;49.446;8.666;2023-05-07T08:37:47;6.03;;;2.60;;
74894;SDS011;63447;49.446;8.666;2023-05-07T08:40:16;5.90;;;2.50;;
74894;SDS011;63447;49.446;8.666;2023-05-07T08:42:48;5.90;;;2.53;;
74894;SDS011;63447;49.446;8.666;2023-05-07T08:45:14;5.78;;;2.70;;
74894;SDS011;63447;49.446;8.666;2023-05-07T08:47:42;5.22;;;2.47;;
74894;SDS011;63447;49.446;8.666;2023-05-07T08:50:24;5.57;;;3.00;;
74894;SDS011;63447;49.446;8.666;2023-05-07T08:52:49;5.78;;;2.65;;
74894;SDS011;63447;49.446;8.666;2023-05-07T08:55:15;4.07;;;2.20;;
74894;SDS011;63447;49.446;8.666;2023-05-07T08:57:41;5.38;;;2.30;;
74894;SDS011;63447;49.446;8.666;2023-05-07T09:00:06;5.25;;;2.40;;
74894;SDS011;63447;49.446;8.666;2023-05-07T09:02:34;7.63;;;2.78;;
74894;SDS011;63447;49.446;8.666;2023-05-07T09:05:01;4.82;;;2.45;;
74894;SDS011;63447;49.446;8.666;2023-05-07T09:07:30;6.03;;;2.40;;
74894;SDS011;63447;49.446;8.666;2023-05-07T09:09:55;4.07;;;2.03;;
74894;SDS011;63447;49.446;8.666;2023-05-07T09:12:24;4.82;;;2.05;;
74894;SDS011;63447;49.446;8.666;2023-05-07T09:14:51;4.03;;;2.00;;
74894;SDS011;63447;49.446;8.666;2023-05-07T09:17:19;5.20;;;2.10;;
74894;SDS011;63447;49.446;8.666;2023-05-07T09:19:47;4.25;;;2.20;;
74894;SDS011;63447;49.446;8.666;2023-05-07T09:22:12;3.85;;;2.00;;
74894;SDS011;63447;49.446;8.666;2023-05-07T09:24:41;14.25;;;8.48;;
74894;SDS011;63447;49.446;8.666;2023-05-07T09:27:12;8.55;;;4.25;;
74894;SDS011;63447;49.446;8.666;2023-05-07T09:29:40;4.45;;;2.45;;
74894;SDS011;63447;49.446;8.666;2023-05-07T09:32:06;5.32;;;2.30;;
74894;SDS011;63447;49.446;8.666;2023-05-07T09:34:33;4.47;;;2.20;;
74894;SDS011;63447;49.446;8.666;2023-05-07T09:37:00;5.03;;;2.25;;
74894;SDS011;63447;49.446;8.666;2023-05-07T09:39:40;5.80;;;2.50;;
74894;SDS011;63447;49.446;8.666;2023-05-07T09:42:10;4.85;;;2.53;;
74894;SDS011;63447;49.446;8.666;2023-05-07T09:44:42;4.78;;;2.00;;
74894;SDS011;63447;49.446;8.666;2023-05-07T09:47:09;5.07;;;2.20;;
74894;SDS011;63447;49.446;8.666;2023-05-07T09:49:38;4.30;;;2.40;;
74894;SDS011;63447;49.446;8.666;2023-05-07T09:52:15;5.40;;;2.50;;
74894;SDS011;63447;49.446;8.666;2023-05-07T09:54:43;4.57;;;2.08;;
74894;SDS011;63447;49.446;8.666;2023-05-07T09:57:12;4.78;;;2.10;;
74894;SDS011;63447;49.446;8.666;2023-05-07T09:59:38;5.00;;;2.40;;
74894;SDS011;63447;49.446;8.666;2023-05-07T10:02:08;3.97;;;1.95;;
74894;SDS011;63447;49.446;8.666;2023-05-07T10:04:39;4.60;;;2.30;;
74894;SDS011;63447;49.446;8.666;2023-05-07T10:07:05;6.60;;;3.75;;
74894;SDS011;63447;49.446;8.666;2023-05-07T10:09:32;9.65;;;6.30;;
74894;SDS011;63447;49.446;8.666;2023-05-07T10:11:57;7.93;;;4.82;;
74894;SDS011;63447;49.446;8.666;2023-05-07T10:14:24;4.93;;;2.10;;
74894;SDS011;63447;49.446;8.666;2023-05-07T10:16:50;5.10;;;2.10;;
74894;SDS011;63447;49.446;8.666;2023-05-07T10:19:19;5.97;;;2.33;;
74894;SDS011;63447;49.446;8.666;2023-05-07T10:21:50;5.78;;;2.47;;
74894;SDS011;63447;49.446;8.666;2023-05-07T10:24:26;5.90;;;2.50;;
74894;SDS011;63447;49.446;8.666;2023-05-07T10:26:54;4.20;;;2.00;;
74894;SDS011;63447;49.446;8.666;2023-05-07T10:34:26;4.28;;;2.20;;
74894;SDS011;63447;49.446;8.666;2023-05-07T10:37:00;4.25;;;2.03;;
74894;SDS011;63447;49.446;8.666;2023-05-07T10:39:27;5.72;;;2.17;;
74894;SDS011;63447;49.446;8.666;2023-05-07T10:41:55;5.65;;;2.13;;
74894;SDS011;63447;49.446;8.666;2023-05-07T10:44:27;4.63;;;2.20;;
74894;SDS011;63447;49.446;8.666;2023-05-07T10:47:06;4.50;;;1.90;;
74894;SDS011;63447;49.446;8.666;2023-05-07T10:49:36;5.00;;;2.08;;
74894;SDS011;63447;49.446;8.666;2023-05-07T10:54:39;5.28;;;1.80;;
74894;SDS011;63447;49.446;8.666;2023-05-07T11:00:04;5.35;;;1.70;;
74894;SDS011;63447;49.446;8.666;2023-05-07T11:05:29;5.70;;;2.20;;
74894;SDS011;63447;49.446;8.666;2023-05-07T11:10:21;3.73;;;2.20;;
74894;SDS011;63447;49.446;8.666;2023-05-07T11:13:07;5.40;;;1.90;;
74894;SDS011;63447;49.446;8.666;2023-05-07T11:15:37;5.15;;;2.20;;
74894;SDS011;63447;49.446;8.666;2023-05-07T11:18:08;4.13;;;1.60;;
74894;SDS011;63447;49.446;8.666;2023-05-07T11:26:02;4.47;;;1.70;;
74894;SDS011;63447;49.446;8.666;2023-05-07T11:28:29;3.60;;;1.42;;
74894;SDS011;63447;49.446;8.666;2023-05-07T11:30:56;4.15;;;1.48;;
74894;SDS011;63447;49.446;8.666;2023-05-07T11:33:22;4.60;;;1.67;;
74894;SDS011;63447;49.446;8.666;2023-05-07T11:35:50;3.92;;;1.60;;
74894;SDS011;63447;49.446;8.666;2023-05-07T11:38:17;4.78;;;1.40;;
74894;SDS011;63447;49.446;8.666;2023-05-07T11:40:54;3.15;;;1.10;;
74894;SDS011;63447;49.446;8.666;2023-05-07T11:43:21;5.10;;;1.35;;
74894;SDS011;63447;49.446;8.666;2023-05-07T11:45:46;3.50;;;1.40;;
74894;SDS011;63447;49.446;8.666;2023-05-07T11:48:16;4.07;;;1.75;;
74894;SDS011;63447;49.446;8.666;2023-05-07T11:50:51;3.97;;;1.58;;
74894;SDS011;63447;49.446;8.666;2023-05-07T11:53:20;5.25;;;1.77;;
74894;SDS011;63447;49.446;8.666;2023-05-07T11:55:51;4.15;;;1.55;;
74894;SDS011;63447;49.446;8.666;2023-05-07T11:58:20;4.65;;;1.80;;
74894;SDS011;63447;49.446;8.666;2023-05-07T12:00:53;4.78;;;1.30;;
74894;SDS011;63447;49.446;8.666;2023-05-07T12:03:21;4.82;;;1.70;;
74894;SDS011;63447;49.446;8.666;2023-05-07T12:05:46;3.55;;;1.60;;
74894;SDS011;63447;49.446;8.666;2023-05-07T12:08:18;4.18;;;1.50;;
74894;SDS011;63447;49.446;8.666;2023-05-07T12:10:47;3.75;;;1.48;;
74894;SDS011;63447;49.446;8.666;2023-05-07T12:13:20;4.38;;;2.25;;
74894;SDS011;63447;49.446;8.666;2023-05-07T12:15:53;6.03;;;2.83;;
74894;SDS011;63447;49.446;8.666;2023-05-07T12:18:20;4.38;;;1.67;;
74894;SDS011;63447;49.446;8.666;2023-05-07T12:20:46;4.63;;;2.03;;
74894;SDS011;63447;49.446;8.666;2023-05-07T12:23:12;4.00;;;1.40;;
74894;SDS011;63447;49.446;8.666;2023-05-07T12:25:41;4.10;;;1.35;;
74894;SDS011;63447;49.446;8.666;2023-05-07T12:28:14;4.47;;;1.75;;
74894;SDS011;63447;49.446;8.666;2023-05-07T12:30:44;3.55;;;1.73;;
74894;SDS011;63447;49.446;8.666;2023-05-07T12:33:22;5.18;;;1.70;;
74894;SDS011;63447;49.446;8.666;2023-05-07T12:38:16;4.37;;;1.83;;
74894;SDS011;63447;49.446;8.666;2023-05-07T12:40:43;5.10;;;1.70;;
74894;SDS011;63447;49.446;8.666;2023-05-07T12:45:43;3.95;;;1.90;;
74894;SDS011;63447;49.446;8.666;2023-05-07T12:48:11;3.80;;;1.73;;
74894;SDS011;63447;49.446;8.666;2023-05-07T12:50:37;4.43;;;1.80;;
74894;SDS011;63447;49.446;8.666;2023-05-07T12:53:03;4.43;;;2.30;;
74894;SDS011;63447;49.446;8.666;2023-05-07T12:55:39;4.38;;;1.90;;
74894;SDS011;63447;49.446;8.666;2023-05-07T13:00:55;6.80;;;4.18;;
74894;SDS011;63447;49.446;8.666;2023-05-07T13:03:29;5.18;;;2.30;;
74894;SDS011;63447;49.446;8.666;2023-05-07T13:06:02;3.63;;;1.67;;
74894;SDS011;63447;49.446;8.666;2023-05-07T13:08:31;4.25;;;1.75;;
74894;SDS011;63447;49.446;8.666;2023-05-07T13:10:58;4.53;;;1.75;;
74894;SDS011;63447;49.446;8.666;2023-05-07T13:13:28;4.60;;;2.00;;
74894;SDS011;63447;49.446;8.666;2023-05-07T13:15:53;5.38;;;1.73;;
74894;SDS011;63447;49.446;8.666;2023-05-07T13:18:21;4.53;;;1.90;;
74894;SDS011;63447;49.446;8.666;2023-05-07T13:20:47;4.20;;;1.95;;
74894;SDS011;63447;49.446;8.666;2023-05-07T13:23:12;3.92;;;1.80;;
74894;SDS011;63447;49.446;8.666;2023-05-07T13:25:38;5.13;;;1.92;;
74894;SDS011;63447;49.446;8.666;2023-05-07T13:28:03;4.40;;;1.93;;
74894;SDS011;63447;49.446;8.666;2023-05-07T13:30:29;3.53;;;1.80;;
74894;SDS011;63447;49.446;8.666;2023-05-07T13:32:55;3.80;;;1.90;;
74894;SDS011;63447;49.446;8.666;2023-05-07T13:35:20;3.88;;;1.95;;
74894;SDS011;63447;49.446;8.666;2023-05-07T13:37:46;5.93;;;3.28;;
74894;SDS011;63447;49.446;8.666;2023-05-07T13:40:13;5.03;;;2.80;;
74894;SDS011;63447;49.446;8.666;2023-05-07T13:42:38;7.15;;;4.60;;
74894;SDS011;63447;49.446;8.666;2023-05-07T13:45:04;4.63;;;2.35;;
74894;SDS011;63447;49.446;8.666;2023-05-07T13:47:30;5.35;;;2.45;;
74894;SDS011;63447;49.446;8.666;2023-05-07T13:49:57;6.80;;;2.53;;
74894;SDS011;63447;49.446;8.666;2023-05-07T13:52:23;5.80;;;2.37;;
74894;SDS011;63447;49.446;8.666;2023-05-07T13:54:48;5.97;;;2.67;;
74894;SDS011;63447;49.446;8.666;2023-05-07T13:57:13;5.93;;;2.50;;
74894;SDS011;63447;49.446;8.666;2023-05-07T13:59:40;5.85;;;2.88;;
74894;SDS011;63447;49.446;8.666;2023-05-07T14:02:06;5.95;;;2.70;;
74894;SDS011;63447;49.446;8.666;2023-05-07T14:04:34;5.50;;;2.60;;
74894;SDS011;63447;49.446;8.666;2023-05-07T14:06:59;4.57;;;2.50;;
74894;SDS011;63447;49.446;8.666;2023-05-07T14:09:27;6.35;;;2.53;;
74894;SDS011;63447;49.446;8.666;2023-05-07T14:11:52;6.32;;;2.88;;
74894;SDS011;63447;49.446;8.666;2023-05-07T14:14:18;6.05;;;2.83;;
74894;SDS011;63447;49.446;8.666;2023-05-07T14:16:44;6.22;;;2.85;;
74894;SDS011;63447;49.446;8.666;2023-05-07T14:19:13;6.60;;;2.70;;
74894;SDS011;63447;49.446;8.666;2023-05-07T14:21:38;8.88;;;3.22;;
74894;SDS011;63447;49.446;8.666;2023-05-07T14:24:05;6.50;;;2.50;;
74894;SDS011;63447;49.446;8.666;2023-05-07T14:26:32;5.43;;;2.17;;
74894;SDS011;63447;49.446;8.666;2023-05-07T14:28:58;5.72;;;2.50;;
74894;SDS011;63447;49.446;8.666;2023-05-07T14:31:25;6.38;;;2.50;;
74894;SDS011;63447;49.446;8.666;2023-05-07T14:33:56;6.90;;;2.80;;
74894;SDS011;63447;49.446;8.666;2023-05-07T14:36:22;6.28;;;3.20;;
74894;SDS011;63447;49.446;8.666;2023-05-07T14:38:51;11.10;;;3.33;;
74894;SDS011;63447;49.446;8.666;2023-05-07T14:41:16;11.68;;;3.67;;
74894;SDS011;63447;49.446;8.666;2023-05-07T14:43:42;6.90;;;3.20;;
74894;SDS011;63447;49.446;8.666;2023-05-07T14:46:07;7.60;;;2.90;;
74894;SDS011;63447;49.446;8.666;2023-05-07T14:48:35;8.13;;;2.63;;
74894;SDS011;63447;49.446;8.666;2023-05-07T14:51:03;8.02;;;3.00;;
74894;SDS011;63447;49.446;8.666;2023-05-07T14:53:28;8.23;;;2.90;;
74894;SDS011;63447;49.446;8.666;2023-05-07T14:55:53;6.15;;;2.70;;
74894;SDS011;63447;49.446;8.666;2023-05-07T14:58:21;9.23;;;3.20;;
74894;SDS011;63447;49.446;8.666;2023-05-07T15:00:49;5.45;;;2.33;;
74894;SDS011;63447;49.446;8.666;2023-05-07T15:03:19;5.05;;;2.20;;
74894;SDS011;63447;49.446;8.666;2023-05-07T15:05:45;6.43;;;2.60;;
74894;SDS011;63447;49.446;8.666;2023-05-07T15:08:10;5.68;;;2.67;;
74894;SDS011;63447;49.446;8.666;2023-05-07T15:10:36;6.68;;;2.67;;
74894;SDS011;63447;49.446;8.666;2023-05-07T15:13:06;5.90;;;2.70;;
74894;SDS011;63447;49.446;8.666;2023-05-07T15:15:33;5.22;;;2.80;;
74894;SDS011;63447;49.446;8.666;2023-05-07T15:18:00;5.18;;;2.33;;
74894;SDS011;63447;49.446;8.666;2023-05-07T15:20:29;9.23;;;3.30;;